sensor_id;sensor_type;location;lat;lon;timestamp;P1;durP1;ratioP1;P2;durP2;ratioP2
80852;SDS011;70270;43.434;28.338;2024-02-14T00:01:00;19.48;;;14.82;;
80852;SDS011;70270;43.434;28.338;2024-02-14T00:03:45;18.60;;;14.77;;
80852;SDS011;70270;43.434;28.338;2024-02-14T00:06:29;19.60;;;14.55;;
80852;SDS011;70270;43.434;28.338;2024-02-14T00:09:20;21.52;;;15.80;;
80852;SDS011;70270;43.434;28.338;2024-02-14T00:12:04;19.50;;;15.00;;
80852;SDS011;70270;43.434;28.338;2024-02-14T00:14:49;21.40;;;15.82;;
80852;SDS011;70270;43.434;28.338;2024-02-14T00:17:34;20.25;;;15.45;;
80852;SDS011;70270;43.434;28.338;2024-02-14T00:20:19;20.27;;;16.25;;
80852;SDS011;70270;43.434;28.338;2024-02-14T00:23:03;22.02;;;15.32;;
80852;SDS011;70270;43.434;28.338;2024-02-14T00:25:48;19.50;;;14.80;;
80852;SDS011;70270;43.434;28.338;2024-02-14T00:28:32;20.65;;;14.48;;
80852;SDS011;70270;43.434;28.338;2024-02-14T00:31:17;19.27;;;13.70;;
80852;SDS011;70270;43.434;28.338;2024-02-14T00:34:01;16.63;;;13.55;;
80852;SDS011;70270;43.434;28.338;2024-02-14T00:36:45;17.35;;;14.07;;
80852;SDS011;70270;43.434;28.338;2024-02-14T00:39:30;18.17;;;13.85;;
80852;SDS011;70270;43.434;28.338;2024-02-14T00:42:15;15.07;;;12.48;;
80852;SDS011;70270;43.434;28.338;2024-02-14T00:44:59;13.70;;;11.00;;
80852;SDS011;70270;43.434;28.338;2024-02-14T00:47:43;14.63;;;12.07;;
80852;SDS011;70270;43.434;28.338;2024-02-14T00:50:28;12.70;;;11.23;;
80852;SDS011;70270;43.434;28.338;2024-02-14T00:53:12;13.15;;;11.35;;
80852;SDS011;70270;43.434;28.338;2024-02-14T00:55:58;12.57;;;11.00;;
80852;SDS011;70270;43.434;28.338;2024-02-14T00:58:42;13.82;;;11.23;;
80852;SDS011;70270;43.434;28.338;2024-02-14T01:01:27;13.80;;;11.35;;
80852;SDS011;70270;43.434;28.338;2024-02-14T01:04:11;12.88;;;11.00;;
80852;SDS011;70270;43.434;28.338;2024-02-14T01:06:55;13.30;;;10.07;;
80852;SDS011;70270;43.434;28.338;2024-02-14T01:09:40;12.32;;;11.00;;
80852;SDS011;70270;43.434;28.338;2024-02-14T01:12:24;13.13;;;10.55;;
80852;SDS011;70270;43.434;28.338;2024-02-14T01:15:10;12.30;;;10.57;;
80852;SDS011;70270;43.434;28.338;2024-02-14T01:17:54;12.98;;;11.10;;
80852;SDS011;70270;43.434;28.338;2024-02-14T01:20:39;13.45;;;10.98;;
80852;SDS011;70270;43.434;28.338;2024-02-14T01:23:23;12.57;;;10.68;;
80852;SDS011;70270;43.434;28.338;2024-02-14T01:26:07;12.57;;;11.20;;
80852;SDS011;70270;43.434;28.338;2024-02-14T01:28:52;12.25;;;10.95;;
80852;SDS011;70270;43.434;28.338;2024-02-14T01:31:36;12.88;;;11.63;;
80852;SDS011;70270;43.434;28.338;2024-02-14T01:34:21;12.73;;;11.43;;
80852;SDS011;70270;43.434;28.338;2024-02-14T01:37:05;14.25;;;11.52;;
80852;SDS011;70270;43.434;28.338;2024-02-14T01:39:50;13.18;;;10.70;;
80852;SDS011;70270;43.434;28.338;2024-02-14T01:42:34;12.63;;;11.32;;
80852;SDS011;70270;43.434;28.338;2024-02-14T01:45:19;13.48;;;10.93;;
80852;SDS011;70270;43.434;28.338;2024-02-14T01:48:03;13.93;;;11.55;;
80852;SDS011;70270;43.434;28.338;2024-02-14T01:50:50;12.43;;;10.65;;
80852;SDS011;70270;43.434;28.338;2024-02-14T01:53:36;14.43;;;11.52;;
80852;SDS011;70270;43.434;28.338;2024-02-14T01:56:25;14.10;;;11.48;;
80852;SDS011;70270;43.434;28.338;2024-02-14T01:59:11;11.82;;;10.63;;
80852;SDS011;70270;43.434;28.338;2024-02-14T02:01:57;11.75;;;10.55;;
80852;SDS011;70270;43.434;28.338;2024-02-14T02:04:42;13.25;;;10.48;;
80852;SDS011;70270;43.434;28.338;2024-02-14T02:07:26;11.88;;;10.68;;
80852;SDS011;70270;43.434;28.338;2024-02-14T02:10:10;13.77;;;10.77;;
80852;SDS011;70270;43.434;28.338;2024-02-14T02:12:58;12.18;;;10.65;;
80852;SDS011;70270;43.434;28.338;2024-02-14T02:15:46;10.90;;;9.80;;
80852;SDS011;70270;43.434;28.338;2024-02-14T02:18:31;11.52;;;10.35;;
80852;SDS011;70270;43.434;28.338;2024-02-14T02:21:16;12.43;;;10.88;;
80852;SDS011;70270;43.434;28.338;2024-02-14T02:24:03;12.52;;;10.50;;
80852;SDS011;70270;43.434;28.338;2024-02-14T02:26:48;11.18;;;10.02;;
80852;SDS011;70270;43.434;28.338;2024-02-14T02:29:33;13.38;;;10.52;;
80852;SDS011;70270;43.434;28.338;2024-02-14T02:32:17;11.52;;;9.98;;
80852;SDS011;70270;43.434;28.338;2024-02-14T02:35:02;12.73;;;10.40;;
80852;SDS011;70270;43.434;28.338;2024-02-14T02:37:47;11.93;;;10.18;;
80852;SDS011;70270;43.434;28.338;2024-02-14T02:40:34;11.77;;;10.30;;
80852;SDS011;70270;43.434;28.338;2024-02-14T02:43:19;13.02;;;10.77;;
80852;SDS011;70270;43.434;28.338;2024-02-14T02:46:03;11.85;;;10.57;;
80852;SDS011;70270;43.434;28.338;2024-02-14T02:48:48;14.82;;;11.68;;
80852;SDS011;70270;43.434;28.338;2024-02-14T02:51:32;12.90;;;10.27;;
80852;SDS011;70270;43.434;28.338;2024-02-14T02:54:17;13.73;;;11.25;;
80852;SDS011;70270;43.434;28.338;2024-02-14T02:57:01;15.52;;;11.38;;
80852;SDS011;70270;43.434;28.338;2024-02-14T02:59:49;14.77;;;11.52;;
80852;SDS011;70270;43.434;28.338;2024-02-14T03:02:33;12.80;;;10.80;;
80852;SDS011;70270;43.434;28.338;2024-02-14T03:05:18;14.90;;;10.50;;
80852;SDS011;70270;43.434;28.338;2024-02-14T03:08:02;14.60;;;10.35;;
80852;SDS011;70270;43.434;28.338;2024-02-14T03:10:47;12.27;;;10.00;;
80852;SDS011;70270;43.434;28.338;2024-02-14T03:13:32;12.77;;;9.32;;
80852;SDS011;70270;43.434;28.338;2024-02-14T03:16:17;11.63;;;9.63;;
80852;SDS011;70270;43.434;28.338;2024-02-14T03:19:01;10.27;;;9.07;;
80852;SDS011;70270;43.434;28.338;2024-02-14T03:24:32;9.15;;;8.25;;
80852;SDS011;70270;43.434;28.338;2024-02-14T03:27:19;9.50;;;8.50;;
80852;SDS011;70270;43.434;28.338;2024-02-14T03:30:07;9.68;;;8.68;;
80852;SDS011;70270;43.434;28.338;2024-02-14T03:32:52;9.70;;;8.77;;
80852;SDS011;70270;43.434;28.338;2024-02-14T03:35:36;9.35;;;8.23;;
80852;SDS011;70270;43.434;28.338;2024-02-14T03:38:27;9.93;;;8.43;;
80852;SDS011;70270;43.434;28.338;2024-02-14T03:41:12;8.45;;;7.65;;
80852;SDS011;70270;43.434;28.338;2024-02-14T03:43:59;10.48;;;7.90;;
80852;SDS011;70270;43.434;28.338;2024-02-14T03:46:45;8.50;;;7.60;;
80852;SDS011;70270;43.434;28.338;2024-02-14T03:49:31;8.68;;;7.78;;
80852;SDS011;70270;43.434;28.338;2024-02-14T03:52:16;8.75;;;7.68;;
80852;SDS011;70270;43.434;28.338;2024-02-14T03:55:01;8.40;;;7.60;;
80852;SDS011;70270;43.434;28.338;2024-02-14T03:57:46;8.63;;;7.72;;
80852;SDS011;70270;43.434;28.338;2024-02-14T04:00:31;9.35;;;8.30;;
80852;SDS011;70270;43.434;28.338;2024-02-14T04:03:16;8.85;;;7.97;;
80852;SDS011;70270;43.434;28.338;2024-02-14T04:06:01;7.28;;;6.55;;
80852;SDS011;70270;43.434;28.338;2024-02-14T04:08:46;8.73;;;7.80;;
80852;SDS011;70270;43.434;28.338;2024-02-14T04:11:30;8.82;;;7.93;;
80852;SDS011;70270;43.434;28.338;2024-02-14T04:14:15;10.20;;;8.25;;
80852;SDS011;70270;43.434;28.338;2024-02-14T04:16:59;10.30;;;8.05;;
80852;SDS011;70270;43.434;28.338;2024-02-14T04:19:44;8.85;;;7.95;;
80852;SDS011;70270;43.434;28.338;2024-02-14T04:22:28;10.18;;;7.68;;
80852;SDS011;70270;43.434;28.338;2024-02-14T04:25:13;7.97;;;7.20;;
80852;SDS011;70270;43.434;28.338;2024-02-14T04:27:57;8.27;;;7.40;;
80852;SDS011;70270;43.434;28.338;2024-02-14T04:30:43;10.43;;;7.90;;
80852;SDS011;70270;43.434;28.338;2024-02-14T04:33:29;9.20;;;7.88;;
80852;SDS011;70270;43.434;28.338;2024-02-14T04:36:15;9.00;;;8.10;;
80852;SDS011;70270;43.434;28.338;2024-02-14T04:39:00;7.85;;;7.07;;
80852;SDS011;70270;43.434;28.338;2024-02-14T04:41:48;8.32;;;7.32;;
80852;SDS011;70270;43.434;28.338;2024-02-14T04:44:34;9.02;;;7.57;;
80852;SDS011;70270;43.434;28.338;2024-02-14T04:47:19;8.00;;;7.30;;
80852;SDS011;70270;43.434;28.338;2024-02-14T04:50:04;8.05;;;7.25;;
80852;SDS011;70270;43.434;28.338;2024-02-14T04:52:49;9.10;;;7.07;;
80852;SDS011;70270;43.434;28.338;2024-02-14T04:55:33;8.90;;;8.00;;
80852;SDS011;70270;43.434;28.338;2024-02-14T04:58:18;9.07;;;8.15;;
80852;SDS011;70270;43.434;28.338;2024-02-14T05:01:03;9.05;;;8.25;;
80852;SDS011;70270;43.434;28.338;2024-02-14T05:03:48;10.75;;;8.10;;
80852;SDS011;70270;43.434;28.338;2024-02-14T05:06:33;9.98;;;7.45;;
80852;SDS011;70270;43.434;28.338;2024-02-14T05:09:18;8.15;;;7.35;;
80852;SDS011;70270;43.434;28.338;2024-02-14T05:12:02;9.65;;;8.18;;
80852;SDS011;70270;43.434;28.338;2024-02-14T05:14:48;9.70;;;8.18;;
80852;SDS011;70270;43.434;28.338;2024-02-14T05:17:32;9.82;;;8.48;;
80852;SDS011;70270;43.434;28.338;2024-02-14T05:20:17;9.18;;;8.27;;
80852;SDS011;70270;43.434;28.338;2024-02-14T05:23:01;10.15;;;8.25;;
80852;SDS011;70270;43.434;28.338;2024-02-14T05:25:46;9.88;;;8.15;;
80852;SDS011;70270;43.434;28.338;2024-02-14T05:28:31;9.98;;;8.98;;
80852;SDS011;70270;43.434;28.338;2024-02-14T05:31:16;10.38;;;9.27;;
80852;SDS011;70270;43.434;28.338;2024-02-14T05:34:00;9.98;;;8.98;;
80852;SDS011;70270;43.434;28.338;2024-02-14T05:36:45;9.57;;;8.30;;
80852;SDS011;70270;43.434;28.338;2024-02-14T05:39:30;11.20;;;9.70;;
80852;SDS011;70270;43.434;28.338;2024-02-14T05:42:15;9.45;;;8.55;;
80852;SDS011;70270;43.434;28.338;2024-02-14T05:44:59;10.98;;;9.00;;
80852;SDS011;70270;43.434;28.338;2024-02-14T05:47:45;9.60;;;8.70;;
80852;SDS011;70270;43.434;28.338;2024-02-14T05:50:29;9.70;;;8.30;;
80852;SDS011;70270;43.434;28.338;2024-02-14T05:53:14;10.27;;;8.80;;
80852;SDS011;70270;43.434;28.338;2024-02-14T05:55:58;12.15;;;8.82;;
80852;SDS011;70270;43.434;28.338;2024-02-14T05:58:43;9.65;;;8.55;;
80852;SDS011;70270;43.434;28.338;2024-02-14T06:01:28;8.93;;;8.02;;
80852;SDS011;70270;43.434;28.338;2024-02-14T06:04:12;9.95;;;8.13;;
80852;SDS011;70270;43.434;28.338;2024-02-14T06:06:57;8.75;;;7.85;;
80852;SDS011;70270;43.434;28.338;2024-02-14T06:09:42;8.57;;;7.45;;
80852;SDS011;70270;43.434;28.338;2024-02-14T06:12:26;8.40;;;7.47;;
80852;SDS011;70270;43.434;28.338;2024-02-14T06:15:11;8.98;;;8.07;;
80852;SDS011;70270;43.434;28.338;2024-02-14T06:17:55;8.25;;;7.38;;
80852;SDS011;70270;43.434;28.338;2024-02-14T06:20:40;8.23;;;7.45;;
80852;SDS011;70270;43.434;28.338;2024-02-14T06:23:24;11.13;;;7.35;;
80852;SDS011;70270;43.434;28.338;2024-02-14T06:26:08;14.85;;;9.13;;
80852;SDS011;70270;43.434;28.338;2024-02-14T06:28:53;8.52;;;7.63;;
80852;SDS011;70270;43.434;28.338;2024-02-14T06:31:38;7.90;;;7.05;;
80852;SDS011;70270;43.434;28.338;2024-02-14T06:34:23;10.00;;;7.53;;
80852;SDS011;70270;43.434;28.338;2024-02-14T06:37:08;8.10;;;7.30;;
80852;SDS011;70270;43.434;28.338;2024-02-14T06:39:52;7.35;;;6.50;;
80852;SDS011;70270;43.434;28.338;2024-02-14T06:42:37;9.18;;;7.07;;
80852;SDS011;70270;43.434;28.338;2024-02-14T06:45:21;8.60;;;7.30;;
80852;SDS011;70270;43.434;28.338;2024-02-14T06:48:07;8.35;;;6.68;;
80852;SDS011;70270;43.434;28.338;2024-02-14T06:50:54;7.57;;;6.65;;
80852;SDS011;70270;43.434;28.338;2024-02-14T06:53:38;6.95;;;5.78;;
80852;SDS011;70270;43.434;28.338;2024-02-14T06:56:22;6.60;;;5.90;;
80852;SDS011;70270;43.434;28.338;2024-02-14T06:59:07;9.52;;;7.47;;
80852;SDS011;70270;43.434;28.338;2024-02-14T07:01:51;12.88;;;6.47;;
80852;SDS011;70270;43.434;28.338;2024-02-14T07:04:39;14.20;;;7.30;;
80852;SDS011;70270;43.434;28.338;2024-02-14T07:07:23;7.00;;;6.32;;
80852;SDS011;70270;43.434;28.338;2024-02-14T07:10:08;8.70;;;6.60;;
80852;SDS011;70270;43.434;28.338;2024-02-14T07:12:52;11.40;;;6.63;;
80852;SDS011;70270;43.434;28.338;2024-02-14T07:15:37;12.10;;;6.97;;
80852;SDS011;70270;43.434;28.338;2024-02-14T07:18:21;14.65;;;5.75;;
80852;SDS011;70270;43.434;28.338;2024-02-14T07:21:06;9.57;;;6.78;;
80852;SDS011;70270;43.434;28.338;2024-02-14T07:23:50;9.00;;;6.70;;
80852;SDS011;70270;43.434;28.338;2024-02-14T07:29:24;5.88;;;5.18;;
80852;SDS011;70270;43.434;28.338;2024-02-14T07:32:09;8.40;;;6.22;;
80852;SDS011;70270;43.434;28.338;2024-02-14T07:34:54;7.47;;;5.72;;
80852;SDS011;70270;43.434;28.338;2024-02-14T07:37:38;10.38;;;6.55;;
80852;SDS011;70270;43.434;28.338;2024-02-14T07:40:24;12.73;;;6.47;;
80852;SDS011;70270;43.434;28.338;2024-02-14T07:43:10;12.32;;;6.72;;
80852;SDS011;70270;43.434;28.338;2024-02-14T07:45:55;7.75;;;6.22;;
80852;SDS011;70270;43.434;28.338;2024-02-14T07:48:39;7.70;;;6.90;;
80852;SDS011;70270;43.434;28.338;2024-02-14T07:51:24;7.68;;;6.07;;
80852;SDS011;70270;43.434;28.338;2024-02-14T07:54:09;6.80;;;6.13;;
80852;SDS011;70270;43.434;28.338;2024-02-14T07:56:54;12.70;;;6.60;;
80852;SDS011;70270;43.434;28.338;2024-02-14T07:59:38;8.18;;;5.60;;
80852;SDS011;70270;43.434;28.338;2024-02-14T08:02:23;8.82;;;6.30;;
80852;SDS011;70270;43.434;28.338;2024-02-14T08:05:07;7.65;;;6.55;;
80852;SDS011;70270;43.434;28.338;2024-02-14T08:07:53;11.80;;;6.30;;
80852;SDS011;70270;43.434;28.338;2024-02-14T08:10:37;9.65;;;5.88;;
80852;SDS011;70270;43.434;28.338;2024-02-14T08:13:22;7.18;;;5.97;;
80852;SDS011;70270;43.434;28.338;2024-02-14T08:16:07;7.78;;;5.97;;
80852;SDS011;70270;43.434;28.338;2024-02-14T08:18:52;8.68;;;7.13;;
80852;SDS011;70270;43.434;28.338;2024-02-14T08:21:42;6.80;;;5.88;;
80852;SDS011;70270;43.434;28.338;2024-02-14T08:24:27;7.00;;;6.30;;
80852;SDS011;70270;43.434;28.338;2024-02-14T08:27:11;8.63;;;6.00;;
80852;SDS011;70270;43.434;28.338;2024-02-14T08:29:56;9.32;;;6.68;;
80852;SDS011;70270;43.434;28.338;2024-02-14T08:32:40;9.57;;;6.72;;
80852;SDS011;70270;43.434;28.338;2024-02-14T08:35:25;9.00;;;6.82;;
80852;SDS011;70270;43.434;28.338;2024-02-14T08:38:09;10.38;;;7.60;;
80852;SDS011;70270;43.434;28.338;2024-02-14T08:40:54;15.25;;;6.72;;
80852;SDS011;70270;43.434;28.338;2024-02-14T08:43:38;11.65;;;6.38;;
80852;SDS011;70270;43.434;28.338;2024-02-14T08:46:23;10.35;;;6.35;;
80852;SDS011;70270;43.434;28.338;2024-02-14T08:49:09;6.63;;;5.80;;
80852;SDS011;70270;43.434;28.338;2024-02-14T08:51:54;6.93;;;5.03;;
80852;SDS011;70270;43.434;28.338;2024-02-14T08:54:39;5.78;;;5.05;;
80852;SDS011;70270;43.434;28.338;2024-02-14T08:57:24;7.15;;;4.85;;
80852;SDS011;70270;43.434;28.338;2024-02-14T09:00:08;9.10;;;5.13;;
80852;SDS011;70270;43.434;28.338;2024-02-14T09:02:55;7.78;;;4.38;;
80852;SDS011;70270;43.434;28.338;2024-02-14T09:05:39;11.13;;;4.30;;
80852;SDS011;70270;43.434;28.338;2024-02-14T09:08:23;13.77;;;4.75;;
80852;SDS011;70270;43.434;28.338;2024-02-14T09:11:08;7.43;;;4.50;;
80852;SDS011;70270;43.434;28.338;2024-02-14T09:13:52;5.10;;;3.70;;
80852;SDS011;70270;43.434;28.338;2024-02-14T09:16:40;6.85;;;4.07;;
80852;SDS011;70270;43.434;28.338;2024-02-14T09:19:24;5.13;;;4.05;;
80852;SDS011;70270;43.434;28.338;2024-02-14T09:22:09;12.18;;;4.13;;
80852;SDS011;70270;43.434;28.338;2024-02-14T09:24:53;9.70;;;4.30;;
80852;SDS011;70270;43.434;28.338;2024-02-14T09:27:38;7.85;;;3.92;;
80852;SDS011;70270;43.434;28.338;2024-02-14T09:30:23;6.10;;;3.95;;
80852;SDS011;70270;43.434;28.338;2024-02-14T09:33:08;13.07;;;4.28;;
80852;SDS011;70270;43.434;28.338;2024-02-14T09:35:52;5.53;;;4.20;;
80852;SDS011;70270;43.434;28.338;2024-02-14T09:38:37;9.07;;;3.90;;
80852;SDS011;70270;43.434;28.338;2024-02-14T09:44:10;19.42;;;4.20;;
80852;SDS011;70270;43.434;28.338;2024-02-14T09:46:55;20.42;;;5.18;;
80852;SDS011;70270;43.434;28.338;2024-02-14T09:49:40;12.93;;;4.35;;
80852;SDS011;70270;43.434;28.338;2024-02-14T09:55:11;6.38;;;3.42;;
80852;SDS011;70270;43.434;28.338;2024-02-14T09:57:56;5.63;;;3.35;;
80852;SDS011;70270;43.434;28.338;2024-02-14T10:00:41;8.00;;;3.40;;
80852;SDS011;70270;43.434;28.338;2024-02-14T10:03:26;8.35;;;4.80;;
80852;SDS011;70270;43.434;28.338;2024-02-14T10:06:11;7.10;;;3.70;;
80852;SDS011;70270;43.434;28.338;2024-02-14T10:08:55;16.45;;;4.03;;
80852;SDS011;70270;43.434;28.338;2024-02-14T10:11:41;10.05;;;3.83;;
80852;SDS011;70270;43.434;28.338;2024-02-14T10:14:26;10.07;;;4.13;;
80852;SDS011;70270;43.434;28.338;2024-02-14T10:17:17;11.27;;;4.25;;
80852;SDS011;70270;43.434;28.338;2024-02-14T10:20:07;5.55;;;3.80;;
80852;SDS011;70270;43.434;28.338;2024-02-14T10:22:59;8.65;;;4.18;;
80852;SDS011;70270;43.434;28.338;2024-02-14T10:25:45;21.95;;;5.35;;
80852;SDS011;70270;43.434;28.338;2024-02-14T10:28:33;13.30;;;4.40;;
80852;SDS011;70270;43.434;28.338;2024-02-14T10:31:17;7.60;;;4.47;;
80852;SDS011;70270;43.434;28.338;2024-02-14T10:34:02;14.63;;;4.88;;
80852;SDS011;70270;43.434;28.338;2024-02-14T10:36:46;8.13;;;4.75;;
80852;SDS011;70270;43.434;28.338;2024-02-14T10:39:34;6.65;;;5.00;;
80852;SDS011;70270;43.434;28.338;2024-02-14T10:42:22;7.15;;;5.20;;
80852;SDS011;70270;43.434;28.338;2024-02-14T10:45:06;10.35;;;4.90;;
80852;SDS011;70270;43.434;28.338;2024-02-14T10:47:52;8.65;;;4.78;;
80852;SDS011;70270;43.434;28.338;2024-02-14T10:50:40;5.40;;;4.22;;
80852;SDS011;70270;43.434;28.338;2024-02-14T10:53:27;6.72;;;4.97;;
80852;SDS011;70270;43.434;28.338;2024-02-14T10:56:18;12.82;;;4.97;;
80852;SDS011;70270;43.434;28.338;2024-02-14T10:59:05;15.65;;;5.53;;
80852;SDS011;70270;43.434;28.338;2024-02-14T11:01:54;9.90;;;4.72;;
80852;SDS011;70270;43.434;28.338;2024-02-14T11:04:41;6.15;;;4.68;;
80852;SDS011;70270;43.434;28.338;2024-02-14T11:07:27;11.52;;;4.53;;
80852;SDS011;70270;43.434;28.338;2024-02-14T11:10:13;13.50;;;4.55;;
80852;SDS011;70270;43.434;28.338;2024-02-14T11:15:45;8.85;;;3.47;;
80852;SDS011;70270;43.434;28.338;2024-02-14T11:18:31;11.35;;;4.10;;
80852;SDS011;70270;43.434;28.338;2024-02-14T11:21:18;10.77;;;4.45;;
80852;SDS011;70270;43.434;28.338;2024-02-14T11:24:06;9.93;;;4.13;;
80852;SDS011;70270;43.434;28.338;2024-02-14T11:26:52;15.05;;;4.13;;
80852;SDS011;70270;43.434;28.338;2024-02-14T11:29:40;7.85;;;4.40;;
80852;SDS011;70270;43.434;28.338;2024-02-14T11:32:36;7.68;;;4.28;;
80852;SDS011;70270;43.434;28.338;2024-02-14T11:35:24;12.18;;;3.95;;
80852;SDS011;70270;43.434;28.338;2024-02-14T11:38:09;7.20;;;4.20;;
80852;SDS011;70270;43.434;28.338;2024-02-14T11:40:55;7.95;;;3.90;;
80852;SDS011;70270;43.434;28.338;2024-02-14T11:43:50;4.90;;;3.85;;
80852;SDS011;70270;43.434;28.338;2024-02-14T11:46:36;7.55;;;4.10;;
80852;SDS011;70270;43.434;28.338;2024-02-14T11:49:21;8.70;;;4.35;;
80852;SDS011;70270;43.434;28.338;2024-02-14T11:52:09;9.30;;;4.30;;
80852;SDS011;70270;43.434;28.338;2024-02-14T11:54:56;10.68;;;4.25;;
80852;SDS011;70270;43.434;28.338;2024-02-14T11:57:43;13.85;;;4.22;;
80852;SDS011;70270;43.434;28.338;2024-02-14T12:00:28;10.18;;;3.67;;
80852;SDS011;70270;43.434;28.338;2024-02-14T12:03:17;7.97;;;4.68;;
80852;SDS011;70270;43.434;28.338;2024-02-14T12:06:03;11.38;;;3.72;;
80852;SDS011;70270;43.434;28.338;2024-02-14T12:08:48;6.65;;;4.22;;
80852;SDS011;70270;43.434;28.338;2024-02-14T12:11:37;10.82;;;4.15;;
80852;SDS011;70270;43.434;28.338;2024-02-14T12:14:23;8.05;;;4.22;;
80852;SDS011;70270;43.434;28.338;2024-02-14T12:17:12;15.63;;;4.53;;
80852;SDS011;70270;43.434;28.338;2024-02-14T12:20:21;7.63;;;3.85;;
80852;SDS011;70270;43.434;28.338;2024-02-14T12:23:05;6.65;;;4.00;;
80852;SDS011;70270;43.434;28.338;2024-02-14T12:25:50;7.82;;;4.10;;
80852;SDS011;70270;43.434;28.338;2024-02-14T12:28:34;13.73;;;4.65;;
80852;SDS011;70270;43.434;28.338;2024-02-14T12:31:24;10.52;;;5.40;;
80852;SDS011;70270;43.434;28.338;2024-02-14T12:34:10;15.70;;;4.82;;
80852;SDS011;70270;43.434;28.338;2024-02-14T12:36:55;7.88;;;4.10;;
80852;SDS011;70270;43.434;28.338;2024-02-14T12:39:40;10.75;;;4.80;;
80852;SDS011;70270;43.434;28.338;2024-02-14T12:42:24;6.05;;;4.25;;
80852;SDS011;70270;43.434;28.338;2024-02-14T12:45:11;25.17;;;5.00;;
80852;SDS011;70270;43.434;28.338;2024-02-14T12:47:56;8.63;;;4.25;;
80852;SDS011;70270;43.434;28.338;2024-02-14T12:50:41;7.32;;;3.72;;
80852;SDS011;70270;43.434;28.338;2024-02-14T12:53:32;6.18;;;4.28;;
80852;SDS011;70270;43.434;28.338;2024-02-14T12:56:17;5.47;;;4.28;;
80852;SDS011;70270;43.434;28.338;2024-02-14T12:59:01;10.13;;;4.35;;
80852;SDS011;70270;43.434;28.338;2024-02-14T13:01:47;6.35;;;4.13;;
80852;SDS011;70270;43.434;28.338;2024-02-14T13:04:32;20.02;;;4.65;;
80852;SDS011;70270;43.434;28.338;2024-02-14T13:07:16;9.38;;;4.70;;
80852;SDS011;70270;43.434;28.338;2024-02-14T13:10:00;9.48;;;4.20;;
80852;SDS011;70270;43.434;28.338;2024-02-14T13:12:47;8.35;;;4.72;;
80852;SDS011;70270;43.434;28.338;2024-02-14T13:15:31;15.73;;;4.57;;
80852;SDS011;70270;43.434;28.338;2024-02-14T13:18:16;7.18;;;4.80;;
80852;SDS011;70270;43.434;28.338;2024-02-14T13:21:01;11.02;;;5.45;;
80852;SDS011;70270;43.434;28.338;2024-02-14T13:27:26;7.45;;;4.68;;
80852;SDS011;70270;43.434;28.338;2024-02-14T13:30:11;7.78;;;4.43;;
80852;SDS011;70270;43.434;28.338;2024-02-14T13:32:56;6.80;;;4.82;;
80852;SDS011;70270;43.434;28.338;2024-02-14T13:35:40;10.13;;;4.53;;
80852;SDS011;70270;43.434;28.338;2024-02-14T13:38:25;7.53;;;4.88;;
80852;SDS011;70270;43.434;28.338;2024-02-14T13:41:09;13.00;;;4.68;;
80852;SDS011;70270;43.434;28.338;2024-02-14T13:46:43;7.53;;;4.57;;
80852;SDS011;70270;43.434;28.338;2024-02-14T13:49:34;9.95;;;4.65;;
80852;SDS011;70270;43.434;28.338;2024-02-14T13:52:19;7.38;;;4.72;;
80852;SDS011;70270;43.434;28.338;2024-02-14T13:55:04;8.40;;;5.28;;
80852;SDS011;70270;43.434;28.338;2024-02-14T13:57:52;7.65;;;4.47;;
80852;SDS011;70270;43.434;28.338;2024-02-14T14:00:36;13.38;;;4.55;;
80852;SDS011;70270;43.434;28.338;2024-02-14T14:03:20;9.52;;;5.22;;
80852;SDS011;70270;43.434;28.338;2024-02-14T14:06:05;11.27;;;5.15;;
80852;SDS011;70270;43.434;28.338;2024-02-14T14:08:51;7.15;;;4.38;;
80852;SDS011;70270;43.434;28.338;2024-02-14T14:11:36;6.00;;;4.35;;
80852;SDS011;70270;43.434;28.338;2024-02-14T14:14:22;28.75;;;5.60;;
80852;SDS011;70270;43.434;28.338;2024-02-14T14:17:10;8.02;;;4.90;;
80852;SDS011;70270;43.434;28.338;2024-02-14T14:19:55;12.25;;;4.88;;
80852;SDS011;70270;43.434;28.338;2024-02-14T14:22:39;6.13;;;4.45;;
80852;SDS011;70270;43.434;28.338;2024-02-14T14:25:24;6.80;;;4.43;;
80852;SDS011;70270;43.434;28.338;2024-02-14T14:28:09;9.05;;;4.95;;
80852;SDS011;70270;43.434;28.338;2024-02-14T14:30:53;5.03;;;4.45;;
80852;SDS011;70270;43.434;28.338;2024-02-14T14:33:39;16.80;;;5.85;;
80852;SDS011;70270;43.434;28.338;2024-02-14T14:36:23;10.63;;;5.03;;
80852;SDS011;70270;43.434;28.338;2024-02-14T14:39:09;7.78;;;4.50;;
80852;SDS011;70270;43.434;28.338;2024-02-14T14:41:55;6.35;;;3.85;;
80852;SDS011;70270;43.434;28.338;2024-02-14T14:44:42;5.50;;;3.78;;
80852;SDS011;70270;43.434;28.338;2024-02-14T14:47:26;10.73;;;4.30;;
80852;SDS011;70270;43.434;28.338;2024-02-14T14:50:11;7.18;;;4.18;;
80852;SDS011;70270;43.434;28.338;2024-02-14T14:52:57;10.20;;;4.35;;
80852;SDS011;70270;43.434;28.338;2024-02-14T14:55:49;20.20;;;5.03;;
80852;SDS011;70270;43.434;28.338;2024-02-14T14:58:39;11.93;;;4.93;;
80852;SDS011;70270;43.434;28.338;2024-02-14T15:01:26;17.73;;;5.57;;
80852;SDS011;70270;43.434;28.338;2024-02-14T15:04:11;15.88;;;5.85;;
80852;SDS011;70270;43.434;28.338;2024-02-14T15:06:57;9.20;;;4.30;;
80852;SDS011;70270;43.434;28.338;2024-02-14T15:09:42;15.93;;;4.80;;
80852;SDS011;70270;43.434;28.338;2024-02-14T15:12:26;11.13;;;4.60;;
80852;SDS011;70270;43.434;28.338;2024-02-14T15:15:11;15.55;;;4.55;;
80852;SDS011;70270;43.434;28.338;2024-02-14T15:17:55;8.80;;;4.60;;
80852;SDS011;70270;43.434;28.338;2024-02-14T15:20:40;7.22;;;4.55;;
80852;SDS011;70270;43.434;28.338;2024-02-14T15:23:25;28.10;;;5.53;;
80852;SDS011;70270;43.434;28.338;2024-02-14T15:26:09;8.25;;;5.03;;
80852;SDS011;70270;43.434;28.338;2024-02-14T15:28:58;9.02;;;4.43;;
80852;SDS011;70270;43.434;28.338;2024-02-14T15:32:01;10.90;;;4.88;;
80852;SDS011;70270;43.434;28.338;2024-02-14T15:35:05;9.27;;;4.68;;
80852;SDS011;70270;43.434;28.338;2024-02-14T15:37:50;16.17;;;6.53;;
80852;SDS011;70270;43.434;28.338;2024-02-14T15:40:36;19.45;;;5.50;;
80852;SDS011;70270;43.434;28.338;2024-02-14T15:43:21;13.40;;;4.97;;
80852;SDS011;70270;43.434;28.338;2024-02-14T15:46:06;9.93;;;5.38;;
80852;SDS011;70270;43.434;28.338;2024-02-14T15:48:51;18.52;;;5.32;;
80852;SDS011;70270;43.434;28.338;2024-02-14T15:51:35;11.95;;;5.20;;
80852;SDS011;70270;43.434;28.338;2024-02-14T15:54:20;8.30;;;4.95;;
80852;SDS011;70270;43.434;28.338;2024-02-14T15:57:04;14.55;;;4.90;;
80852;SDS011;70270;43.434;28.338;2024-02-14T15:59:49;14.77;;;4.80;;
80852;SDS011;70270;43.434;28.338;2024-02-14T16:02:33;12.77;;;4.95;;
80852;SDS011;70270;43.434;28.338;2024-02-14T16:05:18;11.70;;;4.50;;
80852;SDS011;70270;43.434;28.338;2024-02-14T16:08:04;11.90;;;4.75;;
80852;SDS011;70270;43.434;28.338;2024-02-14T16:10:49;11.70;;;5.25;;
80852;SDS011;70270;43.434;28.338;2024-02-14T16:13:34;15.13;;;4.90;;
80852;SDS011;70270;43.434;28.338;2024-02-14T16:19:17;10.50;;;5.28;;
80852;SDS011;70270;43.434;28.338;2024-02-14T16:22:01;10.80;;;4.63;;
80852;SDS011;70270;43.434;28.338;2024-02-14T16:24:47;15.13;;;5.57;;
80852;SDS011;70270;43.434;28.338;2024-02-14T16:27:33;12.05;;;4.68;;
80852;SDS011;70270;43.434;28.338;2024-02-14T16:30:20;26.10;;;5.20;;
80852;SDS011;70270;43.434;28.338;2024-02-14T16:33:04;8.35;;;4.80;;
80852;SDS011;70270;43.434;28.338;2024-02-14T16:35:49;9.93;;;4.72;;